Independence, WV (26374)

12:40 AM EST on November 26, 2014 (GMT -0500)
Black Mtn | Change Station
CLOSE
Current Station
Personal Weather Station
Location: Grafton, WV
Elevation: 1946 ft
Nearby Weather Stations
Active Advisory: Winter Storm Warning Active Notice: Record Report

Elev 1946 ft 39.44 °N, 79.94 °W | Updated 25 seconds ago

Clear
Clear
33.1 °F
Feels Like 33 °F
N
2.7
Wind Variable Wind from NNE

Today
High -- | Low -- °F
--% Chance of Precip.
Yesterday
High -- | Low -- °F
Precip. -- in
7:15 AM 4:57 PM
Waxing Crescent, 17% visible
Pressure 30.20 in
Visibility 10.0 miles
Clouds Clear
Windchill 33 °F
Dew Point 28 °F
Humidity 82%
Rainfall 0.00 in
Snow Depth Not available.
UV 0 out of 12
Pollen .10 out of 12
Air Quality Not available.
Flu Activity Not available.
METAR KMGW 260453Z AUTO 03003KT 10SM CLR 02/M04 A3018 RMK AO2 SLP226 T00171044 401110017 TSNO

More Conditions Fewer Conditions

Pressure 30.20 in
Visibility 10.0 miles
Clouds Clear
Windchill 33 °F
Dew Point 28 °F
Humidity 82%
Rainfall 0.00 in
Snow Depth Not available.
UV 0 out of 12
Pollen .10 out of 12
Air Quality Not available.
Flu Activity Not available.
METAR KMGW 260453Z AUTO 03003KT 10SM CLR 02/M04 A3018 RMK AO2 SLP226 T00171044 401110017 TSNO

More Conditions Fewer Conditions

10-Day Weather Forecast

Almanac

Astronomy

Nov. 26, 2014 Rise Set
Actual Time
Civil Twilight
Nautical Twilight
Astronomical Twilight
Moon
Length of Visible Light
Length of Day
Tomorrow will be .
, % of the Moon is Illuminated

Today's Extremes

State Highs State Lows

Community

WunderPhotos

Upload Photos

1,773,683 photos uploaded!

WunderBlogs® & News

Nearby

Air Quality

  Air Quality AQ Index Pollutant
Not available.

Snow Depth

Station Depth Elevation

Earthquake Activity

City Distance Mag. Time & Date
Minimum magnitude displayed is 2.5.

Coastal Water Temperatures

Place Temperature

Nearby Weather Stations